createdAt,value
2019-02-24T00:00:53.831Z,0
2019-02-24T00:01:54.399Z,0
2019-02-24T00:02:54.965Z,0
2019-02-24T00:03:55.540Z,0
2019-02-24T00:04:56.100Z,0
2019-02-24T00:05:56.666Z,0
2019-02-24T00:06:57.230Z,0
2019-02-24T00:07:57.800Z,0
2019-02-24T00:08:58.374Z,0
2019-02-24T00:09:58.941Z,0
2019-02-24T00:10:59.508Z,0
2019-02-24T00:12:00.074Z,0
2019-02-24T00:13:00.641Z,0
2019-02-24T00:14:01.220Z,0
2019-02-24T00:15:01.788Z,0
2019-02-24T00:16:02.353Z,0
2019-02-24T00:17:02.920Z,0
2019-02-24T00:18:03.489Z,0
2019-02-24T00:19:04.054Z,0
2019-02-24T00:20:04.632Z,0
2019-02-24T00:21:05.195Z,0
2019-02-24T00:22:05.762Z,0
2019-02-24T00:23:06.340Z,0
2019-02-24T00:24:06.906Z,0
2019-02-24T00:25:07.473Z,0
2019-02-24T00:26:08.038Z,0
2019-02-24T00:27:08.604Z,0
2019-02-24T00:28:09.200Z,0
2019-02-24T00:29:09.751Z,0
2019-02-24T00:30:10.314Z,0
2019-02-24T00:31:10.880Z,0
2019-02-24T00:32:11.447Z,0
2019-02-24T00:33:12.178Z,0
2019-02-24T00:34:12.754Z,0
2019-02-24T00:35:13.318Z,0
2019-02-24T00:36:13.884Z,0
2019-02-24T00:37:14.447Z,0
2019-02-24T00:38:15.014Z,0
2019-02-24T00:39:15.595Z,0
2019-02-24T00:40:16.172Z,0
2019-02-24T00:41:16.735Z,0
2019-02-24T00:42:17.300Z,0
2019-02-24T00:43:17.866Z,0
2019-02-24T00:44:18.432Z,0
2019-02-24T00:45:18.999Z,0
2019-02-24T00:46:19.573Z,0
2019-02-24T00:47:20.140Z,0
2019-02-24T00:48:20.708Z,0
2019-02-24T00:49:21.273Z,0
2019-02-24T00:50:21.840Z,0
2019-02-24T00:51:22.405Z,0
2019-02-24T00:52:22.972Z,0
2019-02-24T00:53:23.687Z,0
2019-02-24T00:54:24.253Z,0
2019-02-24T00:55:24.818Z,0
2019-02-24T00:56:25.386Z,0
2019-02-24T00:57:25.961Z,0
2019-02-24T00:58:26.529Z,0
2019-02-24T00:59:27.093Z,0
2019-02-24T01:00:27.661Z,0
2019-02-24T01:01:28.242Z,0
2019-02-24T01:02:28.806Z,0
2019-02-24T01:03:29.374Z,0
2019-02-24T01:04:29.939Z,0
2019-02-24T01:05:30.507Z,0
2019-02-24T01:06:31.071Z,0
2019-02-24T01:07:31.649Z,0
2019-02-24T01:08:32.217Z,0
2019-02-24T01:09:32.783Z,0
2019-02-24T01:10:33.352Z,0
2019-02-24T01:11:33.928Z,0
2019-02-24T01:12:34.495Z,0
2019-02-24T01:13:35.060Z,0
2019-02-24T01:14:35.625Z,0
2019-02-24T01:15:36.193Z,0
2019-02-24T01:16:36.770Z,0
2019-02-24T01:17:37.338Z,0
2019-02-24T01:18:38.004Z,0
2019-02-24T01:19:38.580Z,0
2019-02-24T01:20:39.146Z,0
2019-02-24T01:21:39.724Z,0
2019-02-24T01:22:40.305Z,0
2019-02-24T01:23:40.880Z,0
2019-02-24T01:24:41.447Z,0
2019-02-24T01:25:42.026Z,0
2019-02-24T01:26:42.591Z,0
2019-02-24T01:27:43.156Z,0
2019-02-24T01:28:43.721Z,0
2019-02-24T01:29:44.287Z,0
2019-02-24T01:30:44.853Z,0
2019-02-24T01:31:45.415Z,0
2019-02-24T01:32:45.982Z,0
2019-02-24T01:33:46.545Z,0
2019-02-24T01:34:47.114Z,0
2019-02-24T01:35:47.676Z,0
2019-02-24T01:36:48.253Z,0
2019-02-24T01:37:48.821Z,0
2019-02-24T01:38:49.383Z,0
2019-02-24T01:39:49.947Z,0
2019-02-24T01:40:50.515Z,0
2019-02-24T01:41:51.093Z,0
2019-02-24T01:42:51.659Z,0
2019-02-24T01:43:52.237Z,0
2019-02-24T01:44:52.800Z,0
2019-02-24T01:45:53.366Z,0
2019-02-24T01:46:53.930Z,0
2019-02-24T01:47:54.496Z,0
2019-02-24T01:48:55.074Z,0
2019-02-24T01:49:55.637Z,0
2019-02-24T01:50:56.214Z,0
2019-02-24T01:51:56.778Z,0
2019-02-24T01:52:57.342Z,0
2019-02-24T01:53:57.906Z,0
2019-02-24T01:54:58.471Z,0
2019-02-24T01:55:59.034Z,0
2019-02-24T01:56:59.612Z,0
2019-02-24T01:58:00.179Z,0
2019-02-24T01:59:00.744Z,0
2019-02-24T02:00:01.310Z,0
2019-02-24T02:01:01.874Z,0
2019-02-24T02:02:02.440Z,0
2019-02-24T02:03:03.010Z,0
2019-02-24T02:04:03.572Z,0
2019-02-24T02:05:04.136Z,0
2019-02-24T02:06:04.701Z,0
2019-02-24T02:07:05.265Z,0
2019-02-24T02:08:05.830Z,0
2019-02-24T02:09:06.393Z,0
2019-02-24T02:10:06.960Z,0
2019-02-24T02:11:07.524Z,0
2019-02-24T02:12:08.090Z,0
2019-02-24T02:13:08.652Z,0
2019-02-24T02:14:09.249Z,0
2019-02-24T02:15:09.795Z,0
2019-02-24T02:16:10.361Z,0
2019-02-24T02:17:10.928Z,0
2019-02-24T02:18:11.504Z,0
2019-02-24T02:19:12.070Z,0
2019-02-24T02:20:12.639Z,0
2019-02-24T02:21:13.212Z,0
2019-02-24T02:22:13.790Z,0
2019-02-24T02:23:14.357Z,0
2019-02-24T02:24:14.921Z,0
2019-02-24T02:25:15.488Z,0
2019-02-24T02:26:16.052Z,0
2019-02-24T02:27:16.622Z,0
2019-02-24T02:28:17.183Z,0
2019-02-24T02:29:17.753Z,0
2019-02-24T02:30:18.315Z,0
2019-02-24T02:31:18.880Z,0
2019-02-24T02:32:19.445Z,0
2019-02-24T02:33:20.016Z,0
2019-02-24T02:34:20.574Z,0
2019-02-24T02:35:21.138Z,0
2019-02-24T02:36:21.702Z,0
2019-02-24T02:37:22.277Z,0
2019-02-24T02:38:22.846Z,0
2019-02-24T02:39:23.413Z,0
2019-02-24T02:40:23.976Z,0
2019-02-24T02:41:24.541Z,0
2019-02-24T02:42:25.108Z,0
2019-02-24T02:43:25.671Z,0
2019-02-24T02:44:26.238Z,0
2019-02-24T02:45:26.800Z,0
2019-02-24T02:46:27.371Z,0
2019-02-24T02:47:27.948Z,0
2019-02-24T02:48:28.521Z,0
2019-02-24T02:49:29.098Z,0
2019-02-24T02:50:29.665Z,0
2019-02-24T02:51:30.227Z,0
2019-02-24T02:52:30.794Z,0
2019-02-24T02:53:31.362Z,0
2019-02-24T02:54:32.034Z,0
2019-02-24T02:55:32.599Z,0
2019-02-24T02:56:33.163Z,0
2019-02-24T02:57:33.727Z,0
2019-02-24T02:58:34.290Z,0
2019-02-24T02:59:34.855Z,0
2019-02-24T03:00:35.433Z,0
2019-02-24T03:01:36.007Z,0
2019-02-24T03:02:36.572Z,0
2019-02-24T03:03:37.138Z,0
2019-02-24T03:04:37.711Z,0
2019-02-24T03:05:38.280Z,0
2019-02-24T03:06:38.859Z,0
2019-02-24T03:07:39.473Z,0
2019-02-24T03:08:39.995Z,0
2019-02-24T03:09:40.559Z,0
2019-02-24T03:10:41.124Z,0
2019-02-24T03:11:41.701Z,0
2019-02-24T03:12:42.276Z,0
2019-02-24T03:13:42.833Z,0
2019-02-24T03:14:43.395Z,0
2019-02-24T03:15:43.978Z,0
2019-02-24T03:16:44.536Z,0
2019-02-24T03:17:45.111Z,0
2019-02-24T03:18:45.676Z,0
2019-02-24T03:19:46.243Z,0
2019-02-24T03:20:46.817Z,0
2019-02-24T03:21:47.393Z,0
2019-02-24T03:22:47.957Z,0
2019-02-24T03:23:48.530Z,0
2019-02-24T03:24:49.088Z,0
2019-02-24T03:25:49.660Z,0
2019-02-24T03:26:50.234Z,0
2019-02-24T03:27:50.790Z,0
2019-02-24T03:28:51.357Z,0
2019-02-24T03:29:51.922Z,0
2019-02-24T03:30:52.496Z,0
2019-02-24T03:31:53.067Z,0
2019-02-24T03:32:53.627Z,0
2019-02-24T03:33:54.208Z,0
2019-02-24T03:34:54.766Z,0
2019-02-24T03:35:55.332Z,0
2019-02-24T03:36:55.896Z,0
2019-02-24T03:37:56.458Z,0
2019-02-24T03:38:57.025Z,0
2019-02-24T03:39:57.589Z,0
2019-02-24T03:40:58.169Z,0
2019-02-24T03:41:58.740Z,0
2019-02-24T03:42:59.316Z,0
2019-02-24T03:43:59.882Z,0
2019-02-24T03:45:00.444Z,0
2019-02-24T03:46:01.011Z,0
2019-02-24T03:47:01.575Z,0
2019-02-24T03:48:02.151Z,0
2019-02-24T03:49:02.729Z,0
2019-02-24T03:50:03.285Z,0
2019-02-24T03:51:03.848Z,0
2019-02-24T03:52:04.414Z,0
2019-02-24T03:53:04.978Z,0
2019-02-24T03:54:05.560Z,0
2019-02-24T03:55:06.118Z,0
2019-02-24T03:56:06.681Z,0
2019-02-24T03:57:07.246Z,0
2019-02-24T03:58:07.813Z,0
2019-02-24T03:59:15.078Z,0
2019-02-24T04:00:08.945Z,0
2019-02-24T04:01:09.511Z,0
2019-02-24T04:02:10.079Z,0
2019-02-24T04:03:10.663Z,0
2019-02-24T04:04:11.220Z,0
2019-02-24T04:05:11.797Z,0
2019-02-24T04:06:12.361Z,0
2019-02-24T04:07:12.929Z,0
2019-02-24T04:08:13.500Z,0
2019-02-24T04:09:14.065Z,0
2019-02-24T04:10:14.641Z,0
2019-02-24T04:11:15.215Z,0
2019-02-24T04:12:15.827Z,0
2019-02-24T04:13:16.346Z,0
2019-02-24T04:14:16.911Z,0
2019-02-24T04:15:17.475Z,0
2019-02-24T04:16:18.042Z,0
2019-02-24T04:17:18.616Z,0
2019-02-24T04:18:19.182Z,0
2019-02-24T04:19:19.748Z,0
2019-02-24T04:20:20.313Z,0
2019-02-24T04:21:20.876Z,0
2019-02-24T04:22:21.443Z,0
2019-02-24T04:23:22.005Z,0
2019-02-24T04:24:22.573Z,0
2019-02-24T04:25:23.136Z,0
2019-02-24T04:26:23.700Z,0
2019-02-24T04:27:24.265Z,0
2019-02-24T04:28:24.833Z,0
2019-02-24T04:29:25.484Z,0
2019-02-24T04:30:25.991Z,0
2019-02-24T04:31:26.589Z,0
2019-02-24T04:32:27.123Z,0
2019-02-24T04:33:27.686Z,0
2019-02-24T04:34:28.252Z,0
2019-02-24T04:35:28.816Z,0
2019-02-24T04:36:29.382Z,0
2019-02-24T04:37:29.948Z,0
2019-02-24T04:38:30.522Z,0
2019-02-24T04:39:31.088Z,0
2019-02-24T04:40:31.653Z,0
2019-02-24T04:41:32.218Z,0
2019-02-24T04:42:32.782Z,0
2019-02-24T04:43:33.350Z,0
2019-02-24T04:44:33.913Z,0
2019-02-24T04:45:34.479Z,0
2019-02-24T04:46:35.043Z,0
2019-02-24T04:47:35.611Z,0
2019-02-24T04:48:36.172Z,0
2019-02-24T04:49:36.738Z,0
2019-02-24T04:50:37.301Z,0
2019-02-24T04:51:37.866Z,0
2019-02-24T04:52:38.430Z,0
2019-02-24T04:53:38.995Z,0
2019-02-24T04:54:39.570Z,0
2019-02-24T04:55:40.136Z,0
2019-02-24T04:56:40.708Z,0
2019-02-24T04:57:41.272Z,0
2019-02-24T04:58:41.842Z,0
2019-02-24T04:59:42.413Z,0
2019-02-24T05:00:42.979Z,0
2019-02-24T05:01:43.543Z,0
2019-02-24T05:02:44.106Z,0
2019-02-24T05:03:44.672Z,0
2019-02-24T05:04:45.235Z,0
2019-02-24T05:05:45.800Z,0
2019-02-24T05:06:46.369Z,0
2019-02-24T05:07:46.931Z,0
2019-02-24T05:08:47.504Z,0
2019-02-24T05:09:48.069Z,0
2019-02-24T05:10:48.638Z,0
2019-02-24T05:11:49.201Z,0
2019-02-24T05:12:49.765Z,0
2019-02-24T05:13:50.332Z,0
2019-02-24T05:14:50.896Z,0
2019-02-24T05:15:51.463Z,0
2019-02-24T05:16:52.027Z,0
2019-02-24T05:17:52.589Z,0
2019-02-24T05:18:53.154Z,0
2019-02-24T05:19:53.719Z,0
2019-02-24T05:20:54.445Z,0
2019-02-24T05:21:55.021Z,0
2019-02-24T05:22:55.584Z,0
2019-02-24T05:23:56.148Z,0
2019-02-24T05:24:56.711Z,0
2019-02-24T05:25:57.275Z,0
2019-02-24T05:26:57.842Z,0
2019-02-24T05:27:58.415Z,0
2019-02-24T05:28:58.978Z,0
2019-02-24T05:29:59.543Z,0
2019-02-24T05:31:00.109Z,0
2019-02-24T05:32:00.673Z,0
2019-02-24T05:33:01.238Z,0
2019-02-24T05:34:01.803Z,0
2019-02-24T05:35:02.366Z,0
2019-02-24T05:36:02.929Z,0
2019-02-24T05:37:03.493Z,0
2019-02-24T05:38:04.060Z,0
2019-02-24T05:39:04.622Z,0
2019-02-24T05:40:05.186Z,0
2019-02-24T05:41:05.762Z,0
2019-02-24T05:42:06.327Z,0
2019-02-24T05:43:06.892Z,0
2019-02-24T05:44:07.457Z,0
2019-02-24T05:45:08.023Z,0
2019-02-24T05:46:08.587Z,0
2019-02-24T05:47:09.152Z,0
2019-02-24T05:48:09.718Z,0
2019-02-24T05:49:10.287Z,0
2019-02-24T05:50:10.848Z,0
2019-02-24T05:51:11.674Z,0
2019-02-24T05:52:12.238Z,0
2019-02-24T05:53:12.810Z,0
2019-02-24T05:54:13.375Z,0
2019-02-24T05:55:13.937Z,0
2019-02-24T05:56:14.513Z,0
2019-02-24T05:57:15.077Z,0
2019-02-24T05:58:15.639Z,0
2019-02-24T05:59:16.206Z,0
2019-02-24T06:00:16.779Z,0
2019-02-24T06:01:17.355Z,0
2019-02-24T06:02:17.919Z,0
2019-02-24T06:03:18.484Z,0
2019-02-24T06:04:19.050Z,0
2019-02-24T06:05:19.614Z,0
2019-02-24T06:06:20.182Z,0
2019-02-24T06:07:20.745Z,0
2019-02-24T06:08:21.310Z,0
2019-02-24T06:09:21.875Z,4
2019-02-24T06:10:22.442Z,0
2019-02-24T06:11:23.004Z,0
2019-02-24T06:12:23.569Z,4
2019-02-24T06:13:24.132Z,0
2019-02-24T06:14:24.697Z,4
2019-02-24T06:15:25.261Z,4
2019-02-24T06:16:25.825Z,4
2019-02-24T06:17:26.388Z,4
2019-02-24T06:18:26.953Z,4
2019-02-24T06:19:27.517Z,4
2019-02-24T06:20:28.082Z,4
2019-02-24T06:21:28.646Z,8
2019-02-24T06:22:29.211Z,8
2019-02-24T06:23:29.773Z,8
2019-02-24T06:24:30.349Z,8
2019-02-24T06:25:30.916Z,12
2019-02-24T06:26:31.482Z,12
2019-02-24T06:27:32.083Z,12
2019-02-24T06:28:32.634Z,16
2019-02-24T06:29:33.198Z,16
2019-02-24T06:30:33.763Z,20
2019-02-24T06:31:34.478Z,24
2019-02-24T06:32:35.043Z,24
2019-02-24T06:33:35.622Z,28
2019-02-24T06:34:36.185Z,32
2019-02-24T06:35:36.749Z,32
2019-02-24T06:36:37.329Z,36
2019-02-24T06:37:37.891Z,40
2019-02-24T06:38:38.456Z,40
2019-02-24T06:39:39.023Z,44
2019-02-24T06:40:39.590Z,48
2019-02-24T06:41:40.154Z,52
2019-02-24T06:42:40.725Z,56
2019-02-24T06:43:41.282Z,60
2019-02-24T06:44:41.853Z,64
2019-02-24T06:45:42.426Z,68
2019-02-24T06:46:42.996Z,68
2019-02-24T06:47:43.558Z,72
2019-02-24T06:48:44.122Z,76
2019-02-24T06:49:44.685Z,84
2019-02-24T06:50:45.259Z,84
2019-02-24T06:51:45.826Z,88
2019-02-24T06:52:46.391Z,92
2019-02-24T06:53:46.960Z,100
2019-02-24T06:54:47.527Z,100
2019-02-24T06:55:48.093Z,104
2019-02-24T06:56:48.659Z,108
2019-02-24T06:57:49.225Z,108
2019-02-24T06:58:49.794Z,112
2019-02-24T06:59:50.360Z,120
2019-02-24T07:00:50.928Z,120
2019-02-24T07:01:51.493Z,120
2019-02-24T07:02:52.060Z,128
2019-02-24T07:03:54.495Z,128
2019-02-24T07:04:54.529Z,132
2019-02-24T07:05:55.097Z,140
2019-02-24T07:06:55.662Z,140
2019-02-24T07:07:56.229Z,144
2019-02-24T07:08:56.798Z,148
2019-02-24T07:09:57.361Z,148
2019-02-24T07:10:57.929Z,156
2019-02-24T07:11:58.645Z,156
2019-02-24T07:12:59.211Z,156
2019-02-24T07:13:59.790Z,160
2019-02-24T07:15:00.358Z,164
2019-02-24T07:16:00.925Z,164
2019-02-24T07:17:01.505Z,164
2019-02-24T07:18:02.070Z,172
2019-02-24T07:19:02.636Z,172
2019-02-24T07:20:03.202Z,176
2019-02-24T07:21:03.769Z,180
2019-02-24T07:22:04.336Z,176
2019-02-24T07:23:04.903Z,184
2019-02-24T07:24:05.470Z,184
2019-02-24T07:25:06.038Z,184
2019-02-24T07:26:06.603Z,188
2019-02-24T07:27:07.168Z,192
2019-02-24T07:28:07.735Z,192
2019-02-24T07:29:08.301Z,196
2019-02-24T07:30:08.868Z,196
2019-02-24T07:31:09.433Z,200
2019-02-24T07:32:10.002Z,200
2019-02-24T07:33:12.386Z,204
2019-02-24T07:34:11.153Z,208
2019-02-24T08:40:23.741Z,304
2019-02-24T08:41:24.323Z,308
2019-02-24T08:42:24.894Z,308
2019-02-24T08:43:25.464Z,312
2019-02-24T08:44:26.066Z,312
2019-02-24T08:45:26.600Z,312
2019-02-24T08:46:27.171Z,312
2019-02-24T08:47:27.742Z,312
2019-02-24T08:48:28.310Z,312
2019-02-24T08:49:28.878Z,312
2019-02-24T08:50:29.457Z,312
2019-02-24T08:51:30.027Z,316
2019-02-24T08:52:30.597Z,320
2019-02-24T08:53:31.168Z,320
2019-02-24T08:54:31.738Z,320
2019-02-24T08:55:32.308Z,320
2019-02-24T08:56:32.887Z,320
2019-02-24T08:57:33.446Z,324
2019-02-24T08:58:34.015Z,320
2019-02-24T08:59:34.584Z,320
2019-02-24T09:00:35.154Z,320
2019-02-24T09:01:35.725Z,324
2019-02-24T09:02:36.292Z,328
2019-02-24T09:03:36.905Z,328
2019-02-24T09:04:37.435Z,328
2019-02-24T09:05:38.004Z,328
2019-02-24T09:06:38.571Z,328
2019-02-24T09:07:39.141Z,328
2019-02-24T09:08:39.708Z,328
2019-02-24T09:09:40.286Z,328
2019-02-24T09:10:40.851Z,332
2019-02-24T09:11:41.423Z,332
2019-02-24T09:12:41.988Z,332
2019-02-24T09:13:42.569Z,332
2019-02-24T09:14:43.140Z,336
2019-02-24T09:15:43.710Z,336
2019-02-24T09:16:44.281Z,336
2019-02-24T09:17:44.849Z,336
2019-02-24T09:18:45.421Z,340
2019-02-24T09:19:45.997Z,340
2019-02-24T09:20:46.561Z,340
2019-02-24T09:21:47.132Z,340
2019-02-24T09:22:47.699Z,340
2019-02-24T09:23:48.282Z,344
2019-02-24T09:24:48.861Z,340
2019-02-24T09:25:49.429Z,340
2019-02-24T09:26:50.006Z,344
2019-02-24T09:27:50.570Z,344
2019-02-24T09:28:51.157Z,344
2019-02-24T09:29:51.726Z,348
2019-02-24T09:31:00.444Z,344
2019-02-24T09:31:53.902Z,348
2019-02-24T09:32:54.430Z,352
2019-02-24T09:33:55.001Z,352
2019-02-24T09:34:55.572Z,348
2019-02-24T09:35:56.153Z,352
2019-02-24T09:36:56.722Z,352
2019-02-24T09:37:57.400Z,352
2019-02-24T09:38:57.927Z,356
2019-02-24T09:39:58.506Z,356
2019-02-24T09:41:01.171Z,356
2019-02-24T09:42:00.642Z,356
2019-02-24T09:43:01.214Z,356
2019-02-24T09:44:01.785Z,356
2019-02-24T09:45:02.357Z,360
2019-02-24T09:46:02.927Z,360
2019-02-24T09:47:03.498Z,364
2019-02-24T09:48:04.071Z,364
2019-02-24T09:49:04.643Z,364
2019-02-24T09:50:05.213Z,364
2019-02-24T09:51:05.783Z,364
2019-02-24T09:52:06.354Z,364
2019-02-24T09:53:06.925Z,368
2019-02-24T09:54:07.496Z,368
2019-02-24T09:55:08.081Z,368
2019-02-24T09:56:08.653Z,368
2019-02-24T09:57:09.235Z,372
2019-02-24T09:58:09.808Z,372
2019-02-24T09:59:10.379Z,372
2019-02-24T10:00:10.950Z,372
2019-02-24T10:01:11.521Z,372
2019-02-24T10:02:12.102Z,376
2019-02-24T10:03:12.674Z,376
2019-02-24T10:04:13.248Z,380
2019-02-24T10:05:13.817Z,380
2019-02-24T10:06:14.387Z,376
2019-02-24T10:07:14.959Z,380
2019-02-24T10:08:15.533Z,384
2019-02-24T10:09:16.102Z,372
2019-02-24T10:10:16.677Z,384
2019-02-24T10:11:17.244Z,384
2019-02-24T10:12:17.812Z,380
2019-02-24T10:13:18.386Z,384
2019-02-24T10:14:18.956Z,388
2019-02-24T10:15:19.630Z,384
2019-02-24T10:16:20.203Z,384
2019-02-24T10:17:20.775Z,388
2019-02-24T10:18:21.344Z,384
2019-02-24T10:19:21.917Z,388
2019-02-24T10:20:22.505Z,388
2019-02-24T10:21:23.075Z,388
2019-02-24T10:22:23.648Z,392
2019-02-24T10:23:24.218Z,392
2019-02-24T10:24:24.788Z,392
2019-02-24T10:25:25.373Z,392
2019-02-24T10:26:25.944Z,392
2019-02-24T10:27:26.517Z,396
2019-02-24T10:28:27.092Z,396
2019-02-24T10:29:27.673Z,392
2019-02-24T10:30:28.243Z,396
2019-02-24T10:31:28.817Z,396
2019-02-24T10:32:29.389Z,396
2019-02-24T10:33:29.961Z,396
2019-02-24T10:34:30.537Z,400
2019-02-24T10:35:31.219Z,400
2019-02-24T10:36:31.778Z,396
2019-02-24T10:37:32.357Z,400
2019-02-24T10:38:32.942Z,400
2019-02-24T10:39:33.508Z,400
2019-02-24T10:40:34.095Z,400
2019-02-24T10:41:34.666Z,400
2019-02-24T10:42:35.241Z,400
2019-02-24T10:43:35.823Z,400
2019-02-24T10:44:36.393Z,400
2019-02-24T10:45:36.965Z,404
2019-02-24T10:46:37.551Z,404
2019-02-24T10:47:38.123Z,404
2019-02-24T10:48:38.736Z,404
2019-02-24T10:49:39.267Z,404
2019-02-24T10:50:39.839Z,404
2019-02-24T10:51:40.411Z,408
2019-02-24T10:52:40.983Z,404
2019-02-24T10:53:41.558Z,404
2019-02-24T10:54:42.130Z,408
2019-02-24T10:55:42.708Z,408
2019-02-24T10:56:43.274Z,408
2019-02-24T10:57:43.858Z,408
2019-02-24T10:58:44.430Z,408
2019-02-24T10:59:45.002Z,404
2019-02-24T11:00:45.575Z,408
2019-02-24T11:01:46.150Z,408
2019-02-24T11:02:46.722Z,404
2019-02-24T11:03:47.293Z,408
2019-02-24T11:04:48.961Z,408
2019-02-24T11:05:49.435Z,408
2019-02-24T11:06:50.021Z,408
2019-02-24T11:07:50.604Z,408
2019-02-24T11:08:51.187Z,408
2019-02-24T11:09:51.763Z,408
2019-02-24T11:10:52.334Z,412
2019-02-24T11:11:52.906Z,408
2019-02-24T11:12:53.479Z,408
2019-02-24T11:13:54.053Z,408
2019-02-24T11:14:54.673Z,412
2019-02-24T11:15:55.299Z,412
2019-02-24T11:16:55.873Z,408
2019-02-24T11:17:56.459Z,408
2019-02-24T11:18:57.045Z,412
2019-02-24T11:19:57.620Z,412
2019-02-24T11:20:58.196Z,412
2019-02-24T11:21:58.768Z,412
2019-02-24T11:22:59.342Z,408
2019-02-24T11:23:59.915Z,412
2019-02-24T11:25:00.489Z,412
2019-02-24T11:26:01.062Z,412
2019-02-24T11:27:01.647Z,412
2019-02-24T11:28:02.217Z,412
2019-02-24T11:29:02.789Z,412
2019-02-24T11:30:03.360Z,412
2019-02-24T11:31:03.936Z,412
2019-02-24T11:32:04.510Z,412
2019-02-24T11:33:05.095Z,412
2019-02-24T11:34:05.671Z,416
2019-02-24T11:35:06.243Z,416
2019-02-24T11:36:06.816Z,416
2019-02-24T11:37:07.389Z,416
2019-02-24T11:38:07.974Z,412
2019-02-24T11:39:08.544Z,416
2019-02-24T11:40:09.117Z,416
2019-02-24T11:41:09.694Z,412
2019-02-24T11:42:10.266Z,412
2019-02-24T11:43:10.838Z,416
2019-02-24T11:44:11.411Z,416
2019-02-24T11:45:11.982Z,416
2019-02-24T11:46:12.554Z,416
2019-02-24T11:47:13.138Z,416
2019-02-24T11:48:13.717Z,416
2019-02-24T11:49:14.290Z,416
2019-02-24T11:50:14.869Z,416
2019-02-24T11:51:15.588Z,416
2019-02-24T11:52:16.161Z,416
2019-02-24T11:53:16.735Z,416
2019-02-24T11:54:17.311Z,416
2019-02-24T11:55:17.883Z,416
2019-02-24T11:56:19.733Z,408
2019-02-24T11:57:20.025Z,408
2019-02-24T11:58:20.598Z,412
2019-02-24T11:59:21.172Z,408
2019-02-24T12:00:21.759Z,412
2019-02-24T12:01:22.330Z,408
2019-02-24T12:02:22.904Z,408
2019-02-24T12:03:23.480Z,412
2019-02-24T12:04:24.064Z,412
2019-02-24T12:05:24.647Z,412
2019-02-24T12:06:25.219Z,412
2019-02-24T12:07:25.807Z,412
2019-02-24T12:08:26.378Z,408
2019-02-24T12:09:26.952Z,412
2019-02-24T12:10:27.528Z,408
2019-02-24T12:11:28.103Z,412
2019-02-24T12:12:28.678Z,412
2019-02-24T12:13:29.251Z,408
2019-02-24T12:14:29.824Z,412
2019-02-24T12:15:30.400Z,416
2019-02-24T12:16:30.976Z,412
2019-02-24T12:17:31.548Z,412
2019-02-24T12:18:32.121Z,416
2019-02-24T12:19:32.696Z,412
2019-02-24T12:20:33.270Z,412
2019-02-24T12:21:33.844Z,416
2019-02-24T12:22:34.418Z,412
2019-02-24T12:23:34.997Z,412
2019-02-24T12:24:35.577Z,412
2019-02-24T12:25:36.154Z,416
2019-02-24T12:26:36.727Z,416
2019-02-24T12:27:37.302Z,412
2019-02-24T12:28:37.879Z,412
2019-02-24T12:29:38.451Z,416
2019-02-24T12:30:39.024Z,416
2019-02-24T12:31:39.597Z,412
2019-02-24T12:32:40.181Z,412
2019-02-24T12:33:40.757Z,416
2019-02-24T12:34:41.332Z,416
2019-02-24T12:35:41.909Z,412
2019-02-24T12:36:42.583Z,412
2019-02-24T12:37:43.161Z,416
2019-02-24T12:38:43.734Z,416
2019-02-24T12:39:44.307Z,416
2019-02-24T12:40:44.884Z,416
2019-02-24T12:41:45.459Z,420
2019-02-24T12:42:46.032Z,420
2019-02-24T12:43:46.607Z,416
2019-02-24T12:44:47.194Z,416
2019-02-24T12:45:47.769Z,420
2019-02-24T12:46:48.341Z,420
2019-02-24T12:47:48.914Z,420
2019-02-24T12:48:49.540Z,420
2019-02-24T12:49:50.120Z,420
2019-02-24T12:50:50.713Z,420
2019-02-24T12:51:51.287Z,420
2019-02-24T12:52:51.863Z,420
2019-02-24T12:53:52.437Z,420
2019-02-24T12:54:53.056Z,416
2019-02-24T12:55:53.589Z,416
2019-02-24T12:56:54.163Z,416
2019-02-24T12:57:54.735Z,416
2019-02-24T12:58:55.309Z,416
2019-02-24T12:59:55.885Z,416
2019-02-24T13:00:56.470Z,416
2019-02-24T13:02:05.286Z,416
2019-02-24T13:02:58.613Z,420
2019-02-24T13:03:59.200Z,416
2019-02-24T13:04:59.780Z,416
2019-02-24T13:06:00.350Z,416
2019-02-24T13:07:00.927Z,416
2019-02-24T13:08:01.501Z,416
2019-02-24T13:09:02.073Z,420
2019-02-24T13:10:02.648Z,416
2019-02-24T13:11:03.229Z,416
2019-02-24T13:12:03.900Z,416
2019-02-24T13:13:04.485Z,416
2019-02-24T13:14:05.051Z,420
2019-02-24T13:15:05.630Z,420
2019-02-24T13:16:06.200Z,420
2019-02-24T13:17:07.026Z,424
2019-02-24T13:18:07.614Z,420
2019-02-24T13:19:08.187Z,420
2019-02-24T13:20:10.019Z,424
2019-02-24T13:21:10.334Z,420
2019-02-24T13:22:10.904Z,424
2019-02-24T13:23:11.478Z,424
2019-02-24T13:24:12.064Z,424
2019-02-24T13:25:12.640Z,424
2019-02-24T13:26:13.224Z,424
2019-02-24T13:27:13.797Z,424
2019-02-24T13:28:14.372Z,420
2019-02-24T13:29:14.948Z,428
2019-02-24T13:30:15.522Z,428
2019-02-24T13:31:16.099Z,428
2019-02-24T13:32:16.673Z,428
2019-02-24T13:33:17.248Z,424
2019-02-24T13:34:17.824Z,428
2019-02-24T13:35:18.400Z,428
2019-02-24T13:36:18.976Z,428
2019-02-24T13:37:19.547Z,432
2019-02-24T13:38:20.121Z,428
2019-02-24T13:39:20.699Z,432
2019-02-24T13:40:21.275Z,432
2019-02-24T13:41:21.860Z,432
2019-02-24T13:42:22.438Z,432
2019-02-24T13:43:23.024Z,432
2019-02-24T13:44:23.598Z,436
2019-02-24T13:45:24.177Z,436
2019-02-24T13:46:24.749Z,436
2019-02-24T13:47:25.325Z,440
2019-02-24T13:48:25.899Z,436
2019-02-24T13:49:26.473Z,440
2019-02-24T13:50:27.047Z,440
2019-02-24T13:51:27.623Z,440
2019-02-24T13:52:28.450Z,444
2019-02-24T13:53:29.036Z,444
2019-02-24T13:54:29.612Z,444
2019-02-24T13:55:30.187Z,444
2019-02-24T13:56:30.764Z,444
2019-02-24T13:57:31.339Z,448
2019-02-24T13:58:31.923Z,448
2019-02-24T13:59:32.500Z,448
2019-02-24T14:00:33.075Z,448
2019-02-24T14:01:33.649Z,448
2019-02-24T14:02:34.236Z,448
2019-02-24T14:03:34.808Z,452
2019-02-24T14:04:35.383Z,448
2019-02-24T14:05:35.957Z,452
2019-02-24T14:06:36.533Z,452
2019-02-24T14:07:37.110Z,452
2019-02-24T14:08:37.693Z,452
2019-02-24T14:09:38.269Z,452
2019-02-24T14:10:38.857Z,452
2019-02-24T14:11:39.433Z,452
2019-02-24T14:12:40.019Z,456
2019-02-24T14:13:40.595Z,456
2019-02-24T14:14:48.847Z,456
2019-02-24T14:15:42.741Z,460
2019-02-24T14:16:43.316Z,460
2019-02-24T14:17:43.889Z,460
2019-02-24T14:18:44.466Z,460
2019-02-24T14:19:45.051Z,456
2019-02-24T14:20:45.626Z,460
2019-02-24T14:21:46.202Z,460
2019-02-24T14:22:46.776Z,460
2019-02-24T14:23:47.366Z,460
2019-02-24T14:24:47.954Z,460
2019-02-24T14:25:48.529Z,460
2019-02-24T14:26:49.104Z,460
2019-02-24T14:27:49.681Z,460
2019-02-24T14:28:50.255Z,460
2019-02-24T14:29:50.830Z,464
2019-02-24T14:30:51.404Z,464
2019-02-24T14:31:51.980Z,464
2019-02-24T14:32:52.667Z,464
2019-02-24T14:33:53.253Z,464
2019-02-24T14:34:53.840Z,464
2019-02-24T14:35:54.416Z,464
2019-02-24T14:36:54.989Z,464
2019-02-24T14:37:55.567Z,468
2019-02-24T14:38:56.143Z,468
2019-02-24T14:39:56.718Z,468
2019-02-24T14:40:57.294Z,468
2019-02-24T14:41:57.868Z,468
2019-02-24T14:42:58.444Z,468
2019-02-24T14:43:59.017Z,468
2019-02-24T14:44:59.592Z,464
2019-02-24T14:46:00.172Z,468
2019-02-24T14:47:00.747Z,472
2019-02-24T14:48:01.321Z,464
2019-02-24T14:49:01.898Z,468
2019-02-24T14:50:02.472Z,464
2019-02-24T14:51:03.049Z,468
2019-02-24T14:52:03.623Z,464
2019-02-24T14:53:04.209Z,468
2019-02-24T14:54:04.785Z,464
2019-02-24T14:55:05.360Z,464
2019-02-24T14:56:05.938Z,464
2019-02-24T14:57:06.510Z,464
2019-02-24T14:58:07.086Z,460
2019-02-24T14:59:07.667Z,464
2019-02-24T15:00:08.236Z,460
2019-02-24T15:01:08.815Z,460
2019-02-24T15:02:09.387Z,456
2019-02-24T15:03:09.963Z,460
2019-02-24T15:04:10.541Z,460
2019-02-24T15:05:11.113Z,460
2019-02-24T15:06:11.691Z,460
2019-02-24T15:07:12.266Z,460
2019-02-24T15:08:12.840Z,460
2019-02-24T15:09:13.418Z,456
2019-02-24T15:10:13.991Z,460
2019-02-24T15:11:14.569Z,460
2019-02-24T15:12:15.142Z,460
2019-02-24T15:13:15.719Z,460
2019-02-24T15:14:16.311Z,460
2019-02-24T15:15:16.889Z,460
2019-02-24T15:16:17.465Z,460
2019-02-24T15:17:18.040Z,464
2019-02-24T15:18:18.613Z,460
2019-02-24T15:19:19.201Z,460
2019-02-24T15:20:19.773Z,460
2019-02-24T15:21:20.439Z,460
2019-02-24T15:22:20.944Z,460
2019-02-24T15:23:21.532Z,456
2019-02-24T15:24:22.106Z,460
2019-02-24T15:25:22.684Z,460
2019-02-24T15:26:23.259Z,452
2019-02-24T15:27:23.834Z,452